Terminal Aerodrome Forecast
Issued by NWS Wilmington, OH

Home | Current Version | Previous Version | Text Only | Print | Product List | Glossary On
Versions: 1 2 3 4 5 6 7 8 9 10 11 12 13 14 15 16 17 18 19 20 21
000
FTUS41 KILN 310500
TAFILN
TAF
KILN 310530Z 3106/0106 22003KT P6SM VCSH BKN060
     FM310800 00000KT 4SM BR SCT050
      TEMPO 3109/3111 1SM BR
     FM311300 24008KT P6SM SCT050
     FM010000 VRB03KT P6SM SCT050=

USA.gov is the U.S. government's official web portal to all federal, state and local government web resources and services.